createdAt,value
2022-09-23T00:01:55.452Z,6.50
2022-09-23T00:04:22.494Z,6.40
2022-09-23T00:06:49.507Z,6.30
2022-09-23T00:09:16.529Z,6.10
2022-09-23T00:11:43.623Z,6.10
2022-09-23T00:14:10.662Z,6.10
2022-09-23T00:16:38.758Z,6.10
2022-09-23T00:19:05.818Z,6.10
2022-09-23T00:21:32.842Z,6.00
2022-09-23T00:23:59.897Z,5.90
2022-09-23T00:26:27.530Z,5.90
2022-09-23T00:28:54.546Z,5.80
2022-09-23T00:31:22.484Z,5.80
2022-09-23T00:33:53.641Z,5.70
2022-09-23T00:36:20.638Z,5.70
2022-09-23T00:38:47.647Z,5.70
2022-09-23T00:41:15.997Z,5.60
2022-09-23T00:43:47.409Z,5.50
2022-09-23T00:46:25.403Z,5.50
2022-09-23T00:48:55.308Z,5.50
2022-09-23T00:51:23.203Z,5.40
2022-09-23T00:53:50.324Z,5.40
2022-09-23T00:56:17.348Z,5.50
2022-09-23T00:58:44.518Z,5.30
2022-09-23T01:01:12.028Z,5.30
2022-09-23T01:03:39.087Z,5.40
2022-09-23T01:06:06.202Z,5.40
2022-09-23T01:08:33.284Z,5.50
2022-09-23T01:11:02.792Z,5.40
2022-09-23T01:13:32.326Z,5.20
2022-09-23T01:16:05.996Z,5.20
2022-09-23T01:18:33.001Z,5.10
2022-09-23T01:21:18.911Z,5.10
2022-09-23T01:24:02.369Z,5.10
2022-09-23T01:26:48.306Z,5.10
2022-09-23T01:29:34.271Z,5.10
2022-09-23T01:32:10.418Z,5.00
2022-09-23T01:34:50.668Z,4.90
2022-09-23T01:37:24.725Z,5.00
2022-09-23T01:40:01.687Z,5.00
2022-09-23T01:42:39.569Z,4.90
2022-09-23T01:45:10.869Z,4.80
2022-09-23T01:47:51.376Z,4.80
2022-09-23T01:50:37.627Z,4.90
2022-09-23T01:53:05.042Z,4.90
2022-09-23T01:55:33.619Z,4.90
2022-09-23T01:58:10.336Z,5.00
2022-09-23T02:00:40.609Z,5.00
2022-09-23T02:03:08.380Z,5.00
2022-09-23T02:05:39.447Z,5.00
2022-09-23T02:08:08.735Z,4.90
2022-09-23T02:10:37.370Z,4.70
2022-09-23T02:13:09.268Z,4.60
2022-09-23T02:15:37.818Z,4.50
2022-09-23T02:18:09.811Z,4.50
2022-09-23T02:20:37.348Z,4.50
2022-09-23T02:23:08.585Z,4.50
2022-09-23T02:25:38.710Z,4.50
2022-09-23T02:28:09.389Z,4.40
2022-09-23T02:30:38.856Z,4.40
2022-09-23T02:33:07.797Z,4.40
2022-09-23T02:35:48.919Z,4.40
2022-09-23T02:38:15.904Z,4.30
2022-09-23T02:40:58.628Z,4.30
2022-09-23T02:43:28.014Z,4.30
2022-09-23T02:45:56.113Z,4.30
2022-09-23T02:48:24.427Z,4.30
2022-09-23T02:50:51.816Z,4.20
2022-09-23T02:53:18.820Z,4.20
2022-09-23T02:55:45.829Z,4.20
2022-09-23T02:58:13.456Z,4.20
2022-09-23T03:00:50.092Z,4.20
2022-09-23T03:03:23.648Z,4.10
2022-09-23T03:05:54.015Z,4.10
2022-09-23T03:08:21.024Z,4.00
2022-09-23T03:11:04.316Z,4.00
2022-09-23T03:13:34.203Z,4.00
2022-09-23T03:16:20.487Z,4.10
2022-09-23T03:18:47.506Z,4.20
2022-09-23T03:21:16.282Z,4.10
2022-09-23T03:23:43.302Z,4.10
2022-09-23T03:26:18.190Z,4.10
2022-09-23T03:28:45.178Z,4.00
2022-09-23T03:31:12.364Z,3.90
2022-09-23T03:33:40.480Z,3.90
2022-09-23T03:36:27.218Z,3.80
2022-09-23T03:38:55.885Z,3.90
2022-09-23T03:41:33.060Z,3.90
2022-09-23T03:44:00.057Z,3.90
2022-09-23T03:46:28.486Z,3.90
2022-09-23T03:48:56.767Z,3.80
2022-09-23T03:51:23.964Z,3.80
2022-09-23T03:53:51.048Z,3.80
2022-09-23T03:56:18.110Z,3.80
2022-09-23T03:58:46.426Z,3.70
2022-09-23T04:01:14.780Z,3.90
2022-09-23T04:03:42.195Z,3.80
2022-09-23T04:06:09.219Z,3.70
2022-09-23T04:08:36.210Z,3.70
2022-09-23T04:11:04.613Z,3.70
2022-09-23T04:13:31.891Z,3.70
2022-09-23T04:15:59.009Z,3.70
2022-09-23T04:18:26.295Z,3.60
2022-09-23T04:20:56.834Z,3.70
2022-09-23T04:23:24.338Z,3.80
2022-09-23T04:25:51.351Z,3.80
2022-09-23T04:28:18.354Z,3.80
2022-09-23T04:30:46.130Z,3.70
2022-09-23T04:33:13.398Z,3.70
2022-09-23T04:35:40.631Z,3.80
2022-09-23T04:38:08.167Z,3.80
2022-09-23T04:40:35.291Z,3.90
2022-09-23T04:43:02.302Z,3.90
2022-09-23T04:45:30.402Z,3.90
2022-09-23T04:47:58.338Z,3.80
2022-09-23T04:50:26.080Z,3.70
2022-09-23T04:52:53.099Z,3.80
2022-09-23T04:55:20.090Z,3.70
2022-09-23T04:57:47.099Z,3.60
2022-09-23T05:00:15.176Z,3.60
2022-09-23T05:02:45.546Z,3.70
2022-09-23T05:05:12.821Z,3.70
2022-09-23T05:07:40.231Z,3.70
2022-09-23T05:10:07.625Z,3.70
2022-09-23T05:12:34.694Z,3.70
2022-09-23T05:15:02.335Z,3.70
2022-09-23T05:17:31.122Z,3.80
2022-09-23T05:19:58.553Z,3.80
2022-09-23T05:22:26.531Z,3.70
2022-09-23T05:24:53.690Z,3.70
2022-09-23T05:27:20.780Z,3.90
2022-09-23T05:29:47.936Z,3.90
2022-09-23T05:32:15.294Z,4.00
2022-09-23T05:34:43.003Z,4.10
2022-09-23T05:37:10.044Z,4.10
2022-09-23T05:39:37.135Z,4.10
2022-09-23T05:42:04.199Z,4.20
2022-09-23T05:44:31.209Z,4.20
2022-09-23T05:46:58.256Z,4.30
2022-09-23T05:49:37.947Z,4.40
2022-09-23T05:52:12.263Z,4.50
2022-09-23T05:54:40.183Z,4.60
2022-09-23T05:57:07.204Z,4.70
2022-09-23T05:59:34.517Z,4.60
2022-09-23T06:02:01.598Z,4.70
2022-09-23T06:04:28.722Z,4.90
2022-09-23T06:06:55.863Z,4.90
2022-09-23T06:09:22.891Z,5.00
2022-09-23T06:11:50.805Z,5.00
2022-09-23T06:14:18.709Z,5.10
2022-09-23T06:16:45.706Z,5.10
2022-09-23T06:19:12.770Z,5.20
2022-09-23T06:21:40.537Z,5.30
2022-09-23T06:24:07.862Z,5.50
2022-09-23T06:26:35.590Z,5.60
2022-09-23T06:29:02.891Z,5.60
2022-09-23T06:31:30.043Z,5.90
2022-09-23T06:34:07.410Z,6.00
2022-09-23T06:36:43.403Z,6.20
2022-09-23T06:39:12.074Z,6.30
2022-09-23T06:41:39.271Z,6.40
2022-09-23T06:44:12.375Z,6.60
2022-09-23T06:46:39.436Z,6.60
2022-09-23T06:49:06.453Z,6.70
2022-09-23T06:51:33.731Z,6.80
2022-09-23T06:54:00.748Z,6.80
2022-09-23T06:56:27.810Z,7.00
2022-09-23T06:58:54.921Z,7.10
2022-09-23T07:01:23.123Z,7.30
2022-09-23T07:03:50.251Z,7.50
2022-09-23T07:06:17.636Z,7.60
2022-09-23T07:08:45.071Z,7.80
2022-09-23T07:11:13.090Z,8.00
2022-09-23T07:13:41.130Z,8.10
2022-09-23T07:16:08.450Z,8.20
2022-09-23T07:18:37.338Z,8.30
2022-09-23T07:21:05.490Z,8.40
2022-09-23T07:23:33.447Z,8.60
2022-09-23T07:26:00.629Z,8.80
2022-09-23T07:28:28.927Z,8.90
2022-09-23T07:31:00.234Z,9.00
2022-09-23T07:33:33.407Z,9.20
2022-09-23T07:36:04.203Z,9.40
2022-09-23T07:38:31.426Z,9.50
2022-09-23T07:41:02.536Z,9.60
2022-09-23T07:43:31.828Z,9.60
2022-09-23T07:45:59.828Z,9.80
2022-09-23T07:48:30.702Z,10.00
2022-09-23T07:51:00.811Z,10.10
2022-09-23T07:53:28.509Z,10.20
2022-09-23T07:55:55.906Z,10.40
2022-09-23T07:58:22.950Z,10.60
2022-09-23T08:00:51.102Z,10.50
2022-09-23T08:03:18.200Z,10.60
2022-09-23T08:05:46.391Z,10.70
2022-09-23T08:08:14.089Z,10.90
2022-09-23T08:10:41.149Z,11.10
2022-09-23T08:13:08.196Z,11.40
2022-09-23T08:15:35.265Z,11.50
2022-09-23T08:18:02.308Z,11.70
2022-09-23T08:20:47.063Z,11.80
2022-09-23T08:23:14.891Z,11.80
2022-09-23T08:25:44.966Z,12.00
2022-09-23T08:28:16.038Z,12.30
2022-09-23T08:30:44.094Z,12.40
2022-09-23T08:33:11.579Z,12.40
2022-09-23T08:35:38.754Z,12.50
2022-09-23T08:38:06.330Z,12.40
2022-09-23T08:40:37.169Z,12.70
2022-09-23T08:43:07.615Z,12.80
2022-09-23T08:45:34.951Z,12.60
2022-09-23T08:48:13.106Z,12.60
2022-09-23T08:50:42.350Z,12.70
2022-09-23T08:53:21.745Z,12.80
2022-09-23T08:55:49.066Z,13.00
2022-09-23T08:58:26.221Z,13.20
2022-09-23T09:01:03.781Z,13.20
2022-09-23T09:03:34.129Z,13.20
2022-09-23T09:06:01.133Z,13.30
2022-09-23T09:08:29.717Z,13.40
2022-09-23T09:10:58.112Z,13.60
2022-09-23T09:13:30.009Z,13.70
2022-09-23T09:16:18.823Z,13.90
2022-09-23T09:18:55.123Z,14.00
2022-09-23T09:21:24.966Z,14.10
2022-09-23T09:23:55.943Z,14.10
2022-09-23T09:26:29.674Z,14.10
2022-09-23T09:29:31.151Z,14.10
2022-09-23T09:31:57.669Z,14.20
2022-09-23T09:34:34.950Z,14.40
2022-09-23T09:37:07.307Z,14.70
2022-09-23T09:39:34.912Z,14.90
2022-09-23T09:42:02.104Z,15.00
2022-09-23T09:44:32.103Z,15.20
2022-09-23T09:47:08.719Z,15.30
2022-09-23T09:49:52.183Z,15.50
2022-09-23T09:52:26.350Z,15.30
2022-09-23T09:54:53.437Z,15.50
2022-09-23T09:57:32.078Z,15.40
2022-09-23T10:00:21.168Z,15.40
2022-09-23T10:02:59.281Z,15.70
2022-09-23T10:05:27.174Z,15.60
2022-09-23T10:07:54.506Z,15.80
2022-09-23T10:10:39.523Z,15.70
2022-09-23T10:13:14.261Z,16.00
2022-09-23T10:15:44.670Z,16.00
2022-09-23T10:18:17.588Z,16.20
2022-09-23T10:20:44.595Z,16.20
2022-09-23T10:23:21.377Z,16.20
2022-09-23T10:25:55.759Z,16.10
2022-09-23T10:28:41.382Z,16.20
2022-09-23T10:31:09.940Z,16.40
2022-09-23T10:33:57.241Z,16.70
2022-09-23T10:36:24.830Z,16.90
2022-09-23T10:38:55.693Z,17.10
2022-09-23T10:41:47.927Z,16.90
2022-09-23T10:44:45.409Z,16.70
2022-09-23T10:47:32.139Z,16.60
2022-09-23T10:49:59.274Z,16.90
2022-09-23T10:52:32.347Z,17.00
2022-09-23T10:55:14.694Z,17.00
2022-09-23T10:57:44.813Z,16.90
2022-09-23T11:00:32.015Z,17.00
2022-09-23T11:03:03.889Z,17.00
2022-09-23T11:05:33.442Z,17.00
2022-09-23T11:08:23.006Z,17.20
2022-09-23T11:11:08.846Z,17.30
2022-09-23T11:13:42.064Z,17.50
2022-09-23T11:16:27.873Z,17.50
2022-09-23T11:19:13.575Z,17.50
2022-09-23T11:21:40.571Z,17.60
2022-09-23T11:24:07.668Z,17.60
2022-09-23T11:26:54.549Z,17.70
2022-09-23T11:29:30.792Z,17.70
2022-09-23T11:31:59.712Z,17.50
2022-09-23T11:34:45.871Z,17.90
2022-09-23T11:37:18.549Z,18.00
2022-09-23T11:40:01.068Z,18.20
2022-09-23T11:42:32.823Z,18.00
2022-09-23T11:45:01.583Z,18.00
2022-09-23T11:47:29.535Z,17.80
2022-09-23T11:50:01.269Z,17.60
2022-09-23T11:52:32.164Z,17.60
2022-09-23T11:55:23.084Z,17.60
2022-09-23T11:57:53.738Z,17.60
2022-09-23T12:00:21.376Z,17.60
2022-09-23T12:03:07.579Z,17.60
2022-09-23T12:05:39.667Z,17.90
2022-09-23T12:08:15.707Z,18.00
2022-09-23T12:10:49.707Z,18.20
2022-09-23T12:13:27.100Z,18.20
2022-09-23T12:16:14.576Z,18.30
2022-09-23T12:18:43.613Z,18.30
2022-09-23T12:21:27.481Z,18.20
2022-09-23T12:24:20.115Z,18.30
2022-09-23T12:26:49.491Z,18.30
2022-09-23T12:29:16.564Z,18.30
2022-09-23T12:31:46.723Z,18.30
2022-09-23T12:34:24.799Z,18.30
2022-09-23T12:36:51.835Z,18.40
2022-09-23T12:39:30.083Z,18.40
2022-09-23T12:41:58.398Z,18.40
2022-09-23T12:44:25.462Z,18.40
2022-09-23T12:47:12.573Z,18.50
2022-09-23T12:49:39.587Z,18.50
2022-09-23T12:52:12.759Z,18.60
2022-09-23T12:54:39.866Z,18.60
2022-09-23T12:57:10.647Z,18.70
2022-09-23T12:59:50.240Z,18.70
2022-09-23T13:02:36.245Z,18.90
2022-09-23T13:05:22.042Z,18.90
2022-09-23T13:07:49.230Z,19.00
2022-09-23T13:10:29.786Z,18.90
2022-09-23T13:12:57.172Z,19.10
2022-09-23T13:15:24.246Z,19.30
2022-09-23T13:17:51.283Z,19.30
2022-09-23T13:20:21.302Z,19.50
2022-09-23T13:22:54.431Z,19.40
2022-09-23T13:25:22.216Z,19.40
2022-09-23T13:27:50.016Z,19.50
2022-09-23T13:30:22.342Z,19.50
2022-09-23T13:32:52.227Z,19.30
2022-09-23T13:35:27.222Z,19.00
2022-09-23T13:37:54.367Z,19.10
2022-09-23T13:40:21.566Z,19.30
2022-09-23T13:42:49.841Z,19.40
2022-09-23T13:45:17.777Z,19.30
2022-09-23T13:47:45.279Z,19.10
2022-09-23T13:50:22.063Z,19.00
2022-09-23T13:52:55.746Z,19.10
2022-09-23T13:55:31.025Z,19.10
2022-09-23T13:58:05.371Z,19.10
2022-09-23T14:00:35.197Z,19.10
2022-09-23T14:03:03.036Z,18.90
2022-09-23T14:05:32.687Z,19.10
2022-09-23T14:07:59.824Z,19.20
2022-09-23T14:10:27.760Z,19.10
2022-09-23T14:12:55.086Z,18.90
2022-09-23T14:15:22.093Z,18.80
2022-09-23T14:17:58.970Z,18.80
2022-09-23T14:20:26.004Z,18.90
2022-09-23T14:23:22.486Z,18.80
2022-09-23T14:25:49.559Z,18.70
2022-09-23T14:28:17.458Z,18.70
2022-09-23T14:30:46.137Z,18.70
2022-09-23T14:33:15.199Z,18.80
2022-09-23T14:35:44.542Z,18.90
2022-09-23T14:38:34.539Z,19.00
2022-09-23T14:41:30.632Z,19.10
2022-09-23T14:44:00.865Z,19.20
2022-09-23T14:46:29.414Z,19.10
2022-09-23T14:48:56.452Z,19.00
2022-09-23T14:51:28.610Z,19.10
2022-09-23T14:53:55.634Z,19.20
2022-09-23T14:56:22.827Z,19.30
2022-09-23T14:58:53.720Z,19.30
2022-09-23T15:01:33.007Z,19.30
2022-09-23T15:04:09.023Z,19.30
2022-09-23T15:06:39.542Z,19.40
2022-09-23T15:09:09.422Z,19.60
2022-09-23T15:11:36.596Z,19.70
2022-09-23T15:14:33.171Z,19.60
2022-09-23T15:16:51.703Z,19.70
2022-09-23T15:19:19.544Z,19.80
2022-09-23T15:21:46.892Z,19.80
2022-09-23T15:24:32.831Z,19.80
2022-09-23T15:26:59.840Z,19.80
2022-09-23T15:29:27.335Z,19.90
2022-09-23T15:31:55.046Z,20.00
2022-09-23T15:34:22.110Z,19.70
2022-09-23T15:36:49.598Z,19.70
2022-09-23T15:39:16.587Z,19.70
2022-09-23T15:41:43.886Z,19.80
2022-09-23T15:44:14.632Z,19.70
2022-09-23T15:47:01.027Z,19.70
2022-09-23T15:49:33.910Z,19.70
2022-09-23T15:52:01.082Z,19.90
2022-09-23T15:54:28.425Z,20.10
2022-09-23T15:56:56.358Z,20.10
2022-09-23T15:59:24.029Z,20.00
2022-09-23T16:01:51.303Z,19.90
2022-09-23T16:04:18.326Z,19.70
2022-09-23T16:06:47.913Z,19.80
2022-09-23T16:09:15.380Z,19.80
2022-09-23T16:11:43.489Z,19.70
2022-09-23T16:14:14.087Z,19.30
2022-09-23T16:16:42.515Z,19.00
2022-09-23T16:19:09.654Z,18.70
2022-09-23T16:21:36.702Z,18.50
2022-09-23T16:24:04.371Z,18.30
2022-09-23T16:26:34.650Z,18.20
2022-09-23T16:29:02.328Z,18.10
2022-09-23T16:31:32.734Z,18.00
2022-09-23T16:34:02.531Z,17.90
2022-09-23T16:36:33.177Z,17.80
2022-09-23T16:39:00.988Z,17.80
2022-09-23T16:41:29.236Z,17.60
2022-09-23T16:43:56.304Z,17.50
2022-09-23T16:46:26.982Z,17.40
2022-09-23T16:48:55.540Z,17.30
2022-09-23T16:51:23.751Z,17.10
2022-09-23T16:53:50.961Z,17.00
2022-09-23T16:56:19.477Z,17.00
2022-09-23T16:58:49.182Z,16.90
2022-09-23T17:01:37.115Z,16.90
2022-09-23T17:04:04.125Z,16.90
2022-09-23T17:06:31.154Z,16.70
2022-09-23T17:08:58.155Z,16.70
2022-09-23T17:11:25.171Z,16.50
2022-09-23T17:13:52.247Z,16.40
2022-09-23T17:16:23.419Z,16.30
2022-09-23T17:18:50.503Z,16.30
2022-09-23T17:21:17.516Z,16.20
2022-09-23T17:23:44.639Z,16.20
2022-09-23T17:26:12.464Z,16.10
2022-09-23T17:28:39.469Z,16.00
2022-09-23T17:31:06.645Z,16.00
2022-09-23T17:33:37.186Z,16.00
2022-09-23T17:36:07.939Z,16.00
2022-09-23T17:38:35.026Z,15.90
2022-09-23T17:41:02.296Z,15.80
2022-09-23T17:43:30.096Z,15.80
2022-09-23T17:45:57.767Z,15.50
2022-09-23T17:48:25.350Z,15.30
2022-09-23T17:50:55.996Z,15.10
2022-09-23T17:53:23.311Z,15.10
2022-09-23T17:55:59.902Z,15.00
2022-09-23T17:58:27.619Z,14.90
2022-09-23T18:00:55.322Z,14.80
2022-09-23T18:03:23.052Z,14.80
2022-09-23T18:05:50.083Z,14.60
2022-09-23T18:08:17.108Z,14.40
2022-09-23T18:10:44.150Z,14.30
2022-09-23T18:13:11.158Z,14.20
2022-09-23T18:15:38.520Z,14.10
2022-09-23T18:18:05.599Z,14.00
2022-09-23T18:20:32.640Z,13.80
2022-09-23T18:22:59.662Z,13.80
2022-09-23T18:25:39.162Z,13.70
2022-09-23T18:28:06.918Z,13.50
2022-09-23T18:30:33.921Z,13.50
2022-09-23T18:33:02.031Z,13.50
2022-09-23T18:35:29.074Z,13.40
2022-09-23T18:37:56.165Z,13.40
2022-09-23T18:40:23.323Z,13.40
2022-09-23T18:42:50.446Z,13.30
2022-09-23T18:45:17.711Z,13.30
2022-09-23T18:48:03.269Z,13.40
2022-09-23T18:50:43.870Z,13.40
2022-09-23T18:53:10.917Z,13.30
2022-09-23T18:55:37.955Z,13.20
2022-09-23T18:58:07.315Z,13.10
2022-09-23T19:00:34.932Z,13.00
2022-09-23T19:03:02.145Z,13.10
2022-09-23T19:05:29.318Z,13.10
2022-09-23T19:07:56.353Z,13.00
2022-09-23T19:10:23.424Z,12.90
2022-09-23T19:12:50.408Z,12.70
2022-09-23T19:15:17.395Z,12.70
2022-09-23T19:17:44.431Z,12.80
2022-09-23T19:20:12.550Z,12.60
2022-09-23T19:22:39.899Z,12.40
2022-09-23T19:25:08.306Z,12.40
2022-09-23T19:27:35.928Z,12.50
2022-09-23T19:30:03.151Z,12.60
2022-09-23T19:32:33.288Z,12.30
2022-09-23T19:35:00.331Z,12.10
2022-09-23T19:37:27.386Z,12.00
2022-09-23T19:39:54.442Z,12.10
2022-09-23T19:42:21.892Z,12.20
2022-09-23T19:44:50.175Z,12.20
2022-09-23T19:47:17.658Z,12.10
2022-09-23T19:49:44.712Z,12.10
2022-09-23T19:52:11.782Z,12.10
2022-09-23T19:54:38.787Z,12.00
2022-09-23T19:57:05.926Z,11.90
2022-09-23T19:59:32.963Z,11.70
2022-09-23T20:01:59.996Z,11.70
2022-09-23T20:04:27.170Z,11.60
2022-09-23T20:06:54.215Z,11.60
2022-09-23T20:09:21.243Z,11.70
2022-09-23T20:11:48.294Z,11.70
2022-09-23T20:14:15.293Z,11.80
2022-09-23T20:16:42.499Z,11.50
2022-09-23T20:19:09.776Z,11.40
2022-09-23T20:21:36.774Z,11.40
2022-09-23T20:24:07.475Z,11.50
2022-09-23T20:26:53.359Z,11.50
2022-09-23T20:29:20.409Z,11.50
2022-09-23T20:31:47.606Z,11.40
2022-09-23T20:34:15.083Z,11.40
2022-09-23T20:36:42.490Z,11.30
2022-09-23T20:39:09.953Z,11.20
2022-09-23T20:41:37.516Z,11.10
2022-09-23T20:44:06.259Z,11.10
2022-09-23T20:46:33.937Z,11.20
2022-09-23T20:49:01.832Z,11.20
2022-09-23T20:51:28.862Z,11.30
2022-09-23T20:53:55.879Z,11.20
2022-09-23T20:56:22.927Z,11.20
2022-09-23T20:58:52.088Z,11.10
2022-09-23T21:01:19.360Z,11.00
2022-09-23T21:03:47.402Z,11.00
2022-09-23T21:06:14.953Z,11.00
2022-09-23T21:08:42.154Z,11.10
2022-09-23T21:11:09.903Z,11.10
2022-09-23T21:13:36.895Z,11.00
2022-09-23T21:16:04.055Z,11.00
2022-09-23T21:18:31.167Z,10.90
2022-09-23T21:20:58.914Z,10.90
2022-09-23T21:23:32.703Z,10.80
2022-09-23T21:26:09.699Z,10.80
2022-09-23T21:28:37.273Z,10.80
2022-09-23T21:31:05.215Z,10.80
2022-09-23T21:33:32.927Z,10.70
2022-09-23T21:36:06.092Z,10.70
2022-09-23T21:38:36.551Z,10.70
2022-09-23T21:41:07.390Z,10.70
2022-09-23T21:43:35.136Z,10.80
2022-09-23T21:46:02.931Z,10.80
2022-09-23T21:48:30.251Z,10.80
2022-09-23T21:51:00.995Z,10.80
2022-09-23T21:53:29.407Z,10.80
2022-09-23T21:56:03.542Z,10.90
2022-09-23T21:58:30.953Z,10.90
2022-09-23T22:00:58.071Z,10.90
2022-09-23T22:03:25.249Z,10.90
2022-09-23T22:06:08.138Z,10.90
2022-09-23T22:08:36.911Z,11.00
2022-09-23T22:11:07.775Z,11.00
2022-09-23T22:13:34.807Z,11.00
2022-09-23T22:16:03.134Z,10.90
2022-09-23T22:18:30.200Z,11.00
2022-09-23T22:20:58.219Z,11.10
2022-09-23T22:23:25.279Z,11.10
2022-09-23T22:25:59.469Z,11.10
2022-09-23T22:28:47.806Z,11.00
2022-09-23T22:31:33.422Z,11.00
2022-09-23T22:34:00.537Z,11.10
2022-09-23T22:36:27.606Z,11.10
2022-09-23T22:38:59.224Z,11.10
2022-09-23T22:41:27.252Z,11.10
2022-09-23T22:43:54.311Z,11.00
2022-09-23T22:46:22.115Z,10.90
2022-09-23T22:48:50.423Z,10.90
2022-09-23T22:51:17.511Z,10.90
2022-09-23T22:53:44.518Z,11.00
2022-09-23T22:56:11.539Z,11.00
2022-09-23T22:58:38.532Z,11.00
2022-09-23T23:01:05.593Z,11.10
2022-09-23T23:03:35.121Z,11.10
2022-09-23T23:06:02.166Z,11.10
2022-09-23T23:08:29.411Z,11.10
2022-09-23T23:10:56.559Z,11.10
2022-09-23T23:13:24.434Z,11.10
2022-09-23T23:15:51.451Z,11.10
2022-09-23T23:18:18.491Z,11.10
2022-09-23T23:20:45.624Z,11.00
2022-09-23T23:23:12.647Z,11.00
2022-09-23T23:25:39.645Z,11.00
2022-09-23T23:28:06.686Z,11.00
2022-09-23T23:30:34.343Z,11.00
2022-09-23T23:33:01.424Z,11.00
2022-09-23T23:35:28.444Z,11.00
2022-09-23T23:37:55.458Z,11.00
2022-09-23T23:40:22.670Z,11.00
2022-09-23T23:42:49.734Z,11.00
2022-09-23T23:45:17.352Z,11.10
2022-09-23T23:47:45.131Z,11.00
2022-09-23T23:50:12.214Z,10.90
2022-09-23T23:52:39.207Z,10.90
2022-09-23T23:55:06.358Z,10.90
2022-09-23T23:57:33.365Z,10.80
